createdAt,value
2018-10-11T00:00:31.347Z,20.73
2018-10-11T00:02:59.472Z,21.77
2018-10-11T00:05:27.595Z,21.50
2018-10-11T00:07:55.719Z,21.30
2018-10-11T00:10:23.845Z,20.80
2018-10-11T00:12:52.029Z,20.70
2018-10-11T00:15:20.151Z,21.40
2018-10-11T00:17:48.265Z,25.23
2018-10-11T00:20:16.423Z,23.10
2018-10-11T00:22:44.539Z,22.27
2018-10-11T00:25:12.654Z,22.27
2018-10-11T00:27:40.779Z,21.70
2018-10-11T00:30:09.003Z,24.30
2018-10-11T00:32:37.286Z,25.10
2018-10-11T00:35:05.523Z,25.23
2018-10-11T00:37:33.741Z,22.53
2018-10-11T00:40:01.866Z,23.00
2018-10-11T00:42:29.982Z,24.60
2018-10-11T00:44:58.095Z,30.13
2018-10-11T00:47:26.223Z,28.87
2018-10-11T00:49:54.354Z,25.40
2018-10-11T00:52:22.621Z,25.33
2018-10-11T00:54:50.739Z,25.13
2018-10-11T00:57:18.827Z,27.50
2018-10-11T00:59:46.944Z,24.07
2018-10-11T01:02:15.067Z,23.47
2018-10-11T01:04:43.191Z,22.80
2018-10-11T01:07:11.323Z,23.77
2018-10-11T01:09:39.442Z,24.17
2018-10-11T01:12:07.745Z,24.30
2018-10-11T01:14:35.863Z,23.20
2018-10-11T01:17:04.019Z,23.43
2018-10-11T01:19:32.175Z,23.73
2018-10-11T01:22:00.262Z,24.70
2018-10-11T01:24:28.376Z,24.00
2018-10-11T01:26:56.529Z,25.57
2018-10-11T01:29:24.651Z,38.00
2018-10-11T01:31:52.775Z,29.07
2018-10-11T01:34:20.856Z,30.53
2018-10-11T01:36:48.995Z,31.20
2018-10-11T01:39:17.113Z,30.33
2018-10-11T01:41:45.227Z,29.40
2018-10-11T01:44:13.434Z,28.97
2018-10-11T01:46:41.555Z,29.40
2018-10-11T01:49:09.677Z,29.80
2018-10-11T01:51:37.795Z,24.10
2018-10-11T01:54:06.046Z,25.77
2018-10-11T01:56:34.222Z,26.43
2018-10-11T01:59:02.284Z,26.80
2018-10-11T02:01:30.407Z,25.60
2018-10-11T02:03:58.532Z,27.00
2018-10-11T02:06:26.900Z,28.13
2018-10-11T02:08:55.070Z,26.93
2018-10-11T02:11:23.189Z,27.30
2018-10-11T02:13:51.307Z,26.37
2018-10-11T02:16:19.425Z,26.40
2018-10-11T02:18:47.547Z,26.27
2018-10-11T02:21:15.650Z,26.57
2018-10-11T02:23:43.765Z,28.70
2018-10-11T02:26:11.883Z,28.53
2018-10-11T02:28:40.021Z,28.03
2018-10-11T02:31:08.375Z,27.50
2018-10-11T02:33:36.462Z,27.53
2018-10-11T02:36:04.563Z,27.07
2018-10-11T02:41:00.774Z,32.43
2018-10-11T02:43:28.880Z,46.07
2018-10-11T02:45:56.993Z,34.43
2018-10-11T02:48:25.096Z,29.87
2018-10-11T02:50:53.203Z,34.50
2018-10-11T02:53:21.323Z,32.70
2018-10-11T02:55:49.438Z,39.93
2018-10-11T02:58:29.062Z,43.13
2018-10-11T03:00:57.175Z,35.23
2018-10-11T03:03:27.324Z,27.10
2018-10-11T03:05:55.442Z,26.90
2018-10-11T03:08:25.509Z,25.87
2018-10-11T03:10:53.636Z,26.77
2018-10-11T03:13:21.756Z,26.33
2018-10-11T03:15:49.885Z,35.43
2018-10-11T03:18:18.176Z,33.03
2018-10-11T03:20:46.294Z,26.83
2018-10-11T03:23:14.970Z,31.97
2018-10-11T03:25:44.277Z,29.03
2018-10-11T03:28:13.997Z,27.47
2018-10-11T03:30:42.571Z,28.27
2018-10-11T03:33:11.352Z,28.77
2018-10-11T03:35:39.947Z,27.80
2018-10-11T03:38:08.063Z,27.33
2018-10-11T03:40:36.186Z,26.43
2018-10-11T03:43:04.299Z,26.53
2018-10-11T03:45:32.434Z,26.07
2018-10-11T03:48:00.707Z,28.40
2018-10-11T03:50:28.907Z,27.20
2018-10-11T03:52:57.980Z,29.27
2018-10-11T03:55:26.276Z,27.63
2018-10-11T03:57:54.394Z,32.17
2018-10-11T04:00:22.506Z,33.67
2018-10-11T04:02:50.638Z,28.23
2018-10-11T04:05:18.813Z,31.13
2018-10-11T04:07:46.945Z,27.53
2018-10-11T04:10:15.016Z,28.93
2018-10-11T04:12:43.103Z,32.37
2018-10-11T04:15:11.311Z,33.13
2018-10-11T04:17:39.389Z,31.87
2018-10-11T04:20:07.460Z,32.97
2018-10-11T04:22:35.536Z,31.87
2018-10-11T04:25:03.602Z,32.27
2018-10-11T04:27:31.678Z,31.13
2018-10-11T04:29:59.870Z,31.10
2018-10-11T04:32:27.924Z,31.67
2018-10-11T04:34:55.995Z,29.40
2018-10-11T04:37:24.079Z,31.87
2018-10-11T04:39:52.185Z,30.33
2018-10-11T04:42:20.283Z,31.50
2018-10-11T04:44:48.354Z,32.03
2018-10-11T04:47:16.515Z,31.57
2018-10-11T04:49:44.590Z,31.07
2018-10-11T04:52:12.670Z,30.70
2018-10-11T04:54:40.743Z,29.93
2018-10-11T04:57:08.912Z,30.20
2018-10-11T04:59:37.008Z,30.57
2018-10-11T05:02:05.063Z,31.77
2018-10-11T05:04:33.134Z,31.10
2018-10-11T05:07:01.294Z,30.50
2018-10-11T05:09:29.393Z,31.73
2018-10-11T05:11:57.475Z,31.50
2018-10-11T05:14:25.563Z,30.13
2018-10-11T05:16:53.640Z,27.80
2018-10-11T05:19:21.735Z,26.07
2018-10-11T05:21:49.822Z,28.03
2018-10-11T05:24:17.918Z,28.47
2018-10-11T05:26:46.000Z,29.60
2018-10-11T05:29:14.162Z,33.00
2018-10-11T05:31:42.252Z,29.97
2018-10-11T05:34:10.353Z,30.43
2018-10-11T05:36:38.608Z,28.77
2018-10-11T05:39:07.756Z,33.30
2018-10-11T05:41:36.088Z,33.40
2018-10-11T05:44:04.225Z,31.90
2018-10-11T05:46:33.428Z,29.20
2018-10-11T05:49:02.794Z,29.13
2018-10-11T05:51:31.567Z,33.30
2018-10-11T05:54:00.469Z,32.70
2018-10-11T05:56:30.103Z,32.23
2018-10-11T05:58:58.972Z,30.80
2018-10-11T06:01:27.068Z,32.23
2018-10-11T06:03:56.030Z,31.30
2018-10-11T06:06:24.126Z,32.60
2018-10-11T06:08:53.004Z,31.23
2018-10-11T06:11:21.067Z,30.60
2018-10-11T06:13:49.148Z,30.83
2018-10-11T06:16:17.219Z,29.40
2018-10-11T06:18:45.796Z,29.53
2018-10-11T06:21:14.216Z,28.70
2018-10-11T06:23:42.452Z,25.90
2018-10-11T06:26:10.834Z,24.83
2018-10-11T06:28:38.943Z,26.30
2018-10-11T06:31:07.035Z,27.33
2018-10-11T06:33:35.143Z,27.07
2018-10-11T06:36:03.316Z,28.60
2018-10-11T06:38:31.471Z,25.83
2018-10-11T06:40:59.583Z,25.00
2018-10-11T06:43:27.691Z,25.93
2018-10-11T06:45:55.837Z,25.70
2018-10-11T06:48:23.910Z,26.93
2018-10-11T06:50:51.989Z,26.07
2018-10-11T06:53:20.070Z,25.03
2018-10-11T06:55:48.205Z,23.93
2018-10-11T06:58:16.223Z,24.97
2018-10-11T07:00:44.560Z,26.37
2018-10-11T07:03:12.579Z,26.90
2018-10-11T07:05:40.683Z,26.87
2018-10-11T07:08:08.912Z,26.63
2018-10-11T07:10:37.007Z,27.03
2018-10-11T07:13:05.193Z,25.60
2018-10-11T07:15:33.288Z,25.20
2018-10-11T07:18:01.375Z,23.50
2018-10-11T07:20:29.470Z,21.20
2018-10-11T07:22:57.547Z,23.37
2018-10-11T07:25:25.675Z,24.50
2018-10-11T07:27:53.719Z,23.97
2018-10-11T07:30:21.814Z,22.93
2018-10-11T07:32:49.901Z,21.63
2018-10-11T07:35:18.111Z,21.23
2018-10-11T07:37:46.085Z,22.37
2018-10-11T07:40:14.188Z,19.93
2018-10-11T07:42:42.260Z,21.80
2018-10-11T07:45:10.607Z,21.20
2018-10-11T07:47:38.702Z,21.30
2018-10-11T07:50:07.218Z,19.67
2018-10-11T07:52:35.315Z,20.97
2018-10-11T07:55:03.401Z,20.77
2018-10-11T07:57:31.495Z,20.07
2018-10-11T07:59:59.579Z,20.53
2018-10-11T08:02:27.675Z,20.10
2018-10-11T08:04:55.768Z,19.60
2018-10-11T08:07:23.993Z,19.33
2018-10-11T08:09:52.121Z,19.60
2018-10-11T08:12:20.214Z,19.80
2018-10-11T08:14:48.300Z,19.60
2018-10-11T08:17:16.737Z,18.37
2018-10-11T08:19:44.545Z,18.87
2018-10-11T08:22:12.563Z,17.17
2018-10-11T08:24:40.804Z,18.07
2018-10-11T08:27:08.782Z,18.53
2018-10-11T08:29:36.866Z,18.13
2018-10-11T08:32:04.992Z,17.97
2018-10-11T08:34:33.043Z,17.67
2018-10-11T08:37:01.135Z,17.27
2018-10-11T08:39:29.212Z,16.73
2018-10-11T08:41:57.316Z,17.20
2018-10-11T08:44:25.407Z,17.87
2018-10-11T08:46:53.587Z,17.77
2018-10-11T08:49:21.665Z,15.80
2018-10-11T08:51:49.743Z,16.03
2018-10-11T08:54:23.160Z,15.73
2018-10-11T08:56:51.441Z,16.97
2018-10-11T08:59:19.618Z,16.63
2018-10-11T09:01:47.714Z,16.83
2018-10-11T09:04:15.904Z,16.57
2018-10-11T09:06:43.919Z,15.13
2018-10-11T09:09:12.020Z,15.43
2018-10-11T09:11:40.093Z,15.67
2018-10-11T09:14:08.928Z,15.77
2018-10-11T09:16:36.996Z,15.20
2018-10-11T09:19:05.095Z,15.70
2018-10-11T09:21:33.293Z,16.27
2018-10-11T09:24:01.384Z,17.00
2018-10-11T09:26:29.456Z,15.40
2018-10-11T09:28:57.559Z,15.07
2018-10-11T09:31:25.759Z,15.27
2018-10-11T09:33:53.906Z,15.27
2018-10-11T09:36:22.092Z,15.67
2018-10-11T09:38:50.736Z,15.80
2018-10-11T09:41:18.859Z,15.87
2018-10-11T09:43:46.957Z,15.07
2018-10-11T09:46:15.244Z,14.90
2018-10-11T09:48:43.583Z,15.03
2018-10-11T09:51:12.320Z,13.93
2018-10-11T09:53:40.792Z,14.53
2018-10-11T09:56:08.875Z,15.13
2018-10-11T09:58:36.985Z,15.33
2018-10-11T10:01:10.394Z,15.53
2018-10-11T10:03:38.477Z,14.40
2018-10-11T10:06:06.574Z,15.43
2018-10-11T10:08:34.655Z,14.27
2018-10-11T10:11:02.757Z,14.87
2018-10-11T10:13:30.827Z,13.97
2018-10-11T10:15:58.929Z,14.77
2018-10-11T10:18:27.004Z,15.40
2018-10-11T10:20:55.099Z,15.37
2018-10-11T10:23:23.164Z,14.83
2018-10-11T10:25:51.238Z,14.97
2018-10-11T10:28:19.308Z,14.67
2018-10-11T10:30:49.287Z,14.97
2018-10-11T10:33:17.490Z,15.20
2018-10-11T10:35:45.583Z,14.20
2018-10-11T10:38:13.655Z,14.93
2018-10-11T10:40:41.764Z,14.50
2018-10-11T10:43:10.195Z,15.10
2018-10-11T10:45:38.277Z,15.80
2018-10-11T10:48:06.351Z,13.70
2018-10-11T10:50:34.438Z,13.70
2018-10-11T10:53:02.727Z,13.70
2018-10-11T10:55:30.822Z,14.40
2018-10-11T10:57:58.907Z,14.13
2018-10-11T11:00:26.982Z,14.63
2018-10-11T11:02:55.068Z,14.17
2018-10-11T11:05:23.146Z,14.37
2018-10-11T11:07:51.280Z,14.30
2018-10-11T11:10:19.330Z,14.70
2018-10-11T11:12:47.420Z,13.90
2018-10-11T11:15:15.526Z,14.20
2018-10-11T11:17:43.618Z,14.13
2018-10-11T11:20:11.729Z,12.90
2018-10-11T11:22:39.825Z,13.83
2018-10-11T11:25:07.971Z,13.90
2018-10-11T11:27:36.015Z,13.90
2018-10-11T11:30:04.145Z,13.50
2018-10-11T11:32:32.237Z,13.30
2018-10-11T11:35:00.323Z,13.60
2018-10-11T11:37:28.431Z,12.77
2018-10-11T11:39:56.567Z,13.67
2018-10-11T11:42:24.642Z,14.27
2018-10-11T11:44:52.738Z,13.80
2018-10-11T11:47:20.828Z,13.87
2018-10-11T11:49:48.919Z,14.37
2018-10-11T11:52:17.012Z,13.77
2018-10-11T11:54:45.104Z,12.50
2018-10-11T11:57:13.188Z,12.63
2018-10-11T11:59:41.281Z,12.97
2018-10-11T12:02:09.419Z,12.80
2018-10-11T12:04:37.462Z,12.50
2018-10-11T12:07:05.572Z,12.47
2018-10-11T12:09:33.668Z,12.97
2018-10-11T12:12:01.756Z,12.77
2018-10-11T12:14:29.926Z,13.30
2018-10-11T12:16:58.008Z,12.03
2018-10-11T12:19:26.108Z,12.70
2018-10-11T12:21:54.225Z,12.50
2018-10-11T12:24:22.317Z,13.20
2018-10-11T12:26:50.402Z,12.23
2018-10-11T12:29:18.505Z,11.93
2018-10-11T12:31:46.583Z,10.90
2018-10-11T12:34:14.667Z,11.37
2018-10-11T12:36:42.768Z,11.47
2018-10-11T12:39:10.854Z,11.03
2018-10-11T12:41:38.953Z,11.13
2018-10-11T12:44:07.037Z,10.30
2018-10-11T12:46:35.371Z,10.87
2018-10-11T12:49:03.217Z,11.27
2018-10-11T12:51:31.450Z,11.30
2018-10-11T12:53:59.494Z,10.20
2018-10-11T12:56:27.664Z,9.43
2018-10-11T12:58:55.701Z,10.33
2018-10-11T13:01:24.258Z,10.50
2018-10-11T13:03:51.883Z,11.03
2018-10-11T13:06:19.986Z,10.90
2018-10-11T13:08:48.080Z,10.13
2018-10-11T13:11:16.189Z,9.90
2018-10-11T13:13:47.862Z,9.87
2018-10-11T13:16:12.371Z,10.47
2018-10-11T13:18:40.547Z,11.00
2018-10-11T13:21:08.715Z,11.37
2018-10-11T13:23:36.799Z,10.40
2018-10-11T13:26:04.901Z,10.63
2018-10-11T13:28:32.978Z,9.47
2018-10-11T13:31:01.072Z,10.33
2018-10-11T13:33:29.170Z,9.83
2018-10-11T13:35:57.244Z,9.90
2018-10-11T13:38:25.427Z,9.60
2018-10-11T13:40:56.894Z,9.67
2018-10-11T13:43:21.645Z,10.30
2018-10-11T13:45:52.471Z,9.70
2018-10-11T13:48:18.128Z,9.03
2018-10-11T13:50:46.886Z,9.67
2018-10-11T13:53:19.456Z,10.07
2018-10-11T13:55:48.706Z,9.30
2018-10-11T13:58:11.181Z,9.40
2018-10-11T14:00:39.263Z,9.27
2018-10-11T14:03:07.593Z,17.83
2018-10-11T14:05:35.687Z,9.13
2018-10-11T14:08:03.786Z,11.67
2018-10-11T14:10:31.924Z,12.87
2018-10-11T14:12:59.967Z,9.93
2018-10-11T14:15:28.046Z,8.63
2018-10-11T14:17:58.680Z,9.53
2018-10-11T14:20:24.495Z,8.93
2018-10-11T14:22:52.582Z,9.57
2018-10-11T14:25:20.708Z,9.63
2018-10-11T14:27:48.805Z,10.13
2018-10-11T14:30:16.884Z,10.20
2018-10-11T14:32:45.028Z,10.60
2018-10-11T14:35:13.321Z,9.23
2018-10-11T14:37:41.498Z,12.00
2018-10-11T14:40:09.652Z,16.53
2018-10-11T14:42:37.731Z,18.37
2018-10-11T14:45:06.302Z,14.73
2018-10-11T14:47:34.479Z,16.30
2018-10-11T14:50:02.571Z,16.67
2018-10-11T14:52:30.656Z,10.30
2018-10-11T14:54:58.813Z,9.70
2018-10-11T14:57:27.029Z,9.73
2018-10-11T14:59:55.066Z,9.00
2018-10-11T15:02:23.155Z,9.20
2018-10-11T15:04:51.242Z,9.53
2018-10-11T15:07:19.323Z,9.50
2018-10-11T15:09:47.409Z,10.17
2018-10-11T15:12:15.474Z,10.77
2018-10-11T15:14:43.623Z,9.33
2018-10-11T15:17:11.697Z,9.53
2018-10-11T15:19:39.810Z,8.93
2018-10-11T15:22:07.886Z,9.97
2018-10-11T15:24:36.171Z,8.77
2018-10-11T15:27:04.401Z,9.00
2018-10-11T15:29:32.593Z,8.47
2018-10-11T15:32:00.688Z,9.00
2018-10-11T15:34:28.767Z,9.07
2018-10-11T15:36:56.939Z,8.70
2018-10-11T15:39:25.024Z,8.70
2018-10-11T15:41:53.094Z,8.33
2018-10-11T15:44:21.171Z,9.30
2018-10-11T15:46:49.413Z,8.27
2018-10-11T15:49:17.457Z,8.87
2018-10-11T15:51:45.529Z,8.97
2018-10-11T15:54:13.607Z,8.57
2018-10-11T15:56:41.724Z,9.50
2018-10-11T15:59:09.791Z,9.50
2018-10-11T16:01:37.982Z,9.83
2018-10-11T16:04:06.050Z,9.53
2018-10-11T16:06:34.133Z,9.40
2018-10-11T16:09:02.312Z,10.13
2018-10-11T16:11:30.460Z,9.70
2018-10-11T16:13:58.539Z,11.03
2018-10-11T16:16:26.618Z,10.47
2018-10-11T16:18:54.696Z,10.00
2018-10-11T16:21:22.794Z,10.90
2018-10-11T16:23:50.876Z,11.13
2018-10-11T16:26:18.962Z,10.87
2018-10-11T16:28:47.036Z,10.77
2018-10-11T16:31:15.121Z,11.00
2018-10-11T16:33:43.243Z,10.77
2018-10-11T16:36:11.321Z,10.47
2018-10-11T16:38:39.392Z,10.77
2018-10-11T16:41:07.475Z,10.83
2018-10-11T16:43:35.543Z,10.87
2018-10-11T16:46:03.615Z,10.60
2018-10-11T16:48:31.706Z,10.93
2018-10-11T16:50:59.774Z,10.43
2018-10-11T16:53:27.855Z,11.90
2018-10-11T16:55:55.956Z,11.50
2018-10-11T16:58:24.047Z,11.90
2018-10-11T17:00:52.175Z,12.03
2018-10-11T17:03:20.567Z,11.37
2018-10-11T17:05:48.705Z,10.90
2018-10-11T17:08:16.813Z,11.57
2018-10-11T17:10:44.976Z,11.67
2018-10-11T17:13:13.074Z,11.37
2018-10-11T17:15:41.159Z,11.90
2018-10-11T17:18:09.262Z,12.37
2018-10-11T17:20:37.356Z,12.53
2018-10-11T17:23:05.668Z,12.30
2018-10-11T17:25:33.755Z,12.40
2018-10-11T17:28:01.874Z,13.07
2018-10-11T17:30:29.976Z,11.87
2018-10-11T17:32:58.060Z,13.00
2018-10-11T17:35:26.429Z,12.17
2018-10-11T17:37:54.588Z,12.30
2018-10-11T17:40:22.873Z,12.70
2018-10-11T17:42:51.023Z,12.70
2018-10-11T17:45:19.111Z,12.80
2018-10-11T17:47:47.196Z,12.20
2018-10-11T17:50:15.354Z,15.20
2018-10-11T17:52:43.416Z,13.60
2018-10-11T17:55:11.518Z,13.20
2018-10-11T17:57:39.605Z,11.77
2018-10-11T18:00:07.905Z,13.00
2018-10-11T18:02:35.990Z,15.60
2018-10-11T18:05:04.180Z,12.53
2018-10-11T18:07:32.279Z,13.13
2018-10-11T18:10:00.405Z,11.53
2018-10-11T18:12:28.445Z,11.30
2018-10-11T18:14:56.555Z,12.43
2018-10-11T18:17:24.623Z,12.33
2018-10-11T18:19:52.727Z,13.70
2018-10-11T18:22:20.771Z,16.23
2018-10-11T18:24:48.859Z,21.17
2018-10-11T18:27:17.859Z,15.77
2018-10-11T18:29:45.936Z,13.80
2018-10-11T18:32:14.008Z,14.60
2018-10-11T18:34:42.092Z,14.90
2018-10-11T18:37:10.170Z,14.80
2018-10-11T18:39:38.250Z,15.97
2018-10-11T18:42:06.320Z,12.53
2018-10-11T18:44:34.466Z,12.73
2018-10-11T18:47:02.478Z,14.10
2018-10-11T18:49:30.560Z,12.60
2018-10-11T18:51:58.656Z,12.47
2018-10-11T18:54:26.728Z,13.60
2018-10-11T18:56:54.810Z,12.73
2018-10-11T18:59:22.875Z,12.90
2018-10-11T19:01:50.959Z,12.30
2018-10-11T19:04:19.031Z,12.33
2018-10-11T19:06:47.128Z,12.77
2018-10-11T19:09:15.265Z,14.33
2018-10-11T19:11:43.344Z,14.80
2018-10-11T19:14:11.488Z,13.80
2018-10-11T19:16:39.565Z,13.43
2018-10-11T19:19:07.644Z,14.77
2018-10-11T19:21:35.743Z,14.20
2018-10-11T19:24:03.811Z,14.60
2018-10-11T19:26:31.888Z,13.30
2018-10-11T19:28:59.955Z,13.17
2018-10-11T19:31:28.042Z,13.17
2018-10-11T19:33:56.115Z,13.17
2018-10-11T19:36:24.326Z,13.57
2018-10-11T19:38:52.407Z,13.20
2018-10-11T19:41:20.493Z,13.67
2018-10-11T19:43:48.591Z,15.07
2018-10-11T19:46:16.674Z,14.60
2018-10-11T19:48:44.743Z,13.97
2018-10-11T19:51:12.842Z,14.23
2018-10-11T19:53:40.917Z,13.33
2018-10-11T19:56:09.026Z,13.20
2018-10-11T19:58:37.073Z,14.27
2018-10-11T20:01:05.198Z,15.30
2018-10-11T20:03:33.275Z,14.90
2018-10-11T20:06:01.392Z,15.20
2018-10-11T20:08:29.585Z,13.57
2018-10-11T20:10:57.674Z,13.97
2018-10-11T20:13:25.795Z,13.17
2018-10-11T20:15:53.998Z,13.63
2018-10-11T20:18:22.120Z,13.43
2018-10-11T20:20:50.190Z,12.67
2018-10-11T20:23:18.291Z,12.67
2018-10-11T20:25:46.397Z,13.13
2018-10-11T20:28:14.480Z,13.83
2018-10-11T20:30:42.510Z,14.63
2018-10-11T20:33:10.691Z,14.30
2018-10-11T20:35:38.831Z,13.80
2018-10-11T20:38:07.014Z,13.40
2018-10-11T20:40:35.081Z,14.00
2018-10-11T20:43:03.160Z,13.43
2018-10-11T20:45:31.329Z,13.77
2018-10-11T20:47:59.435Z,13.73
2018-10-11T20:50:27.590Z,12.87
2018-10-11T20:52:55.943Z,13.13
2018-10-11T20:55:24.012Z,13.10
2018-10-11T20:57:52.099Z,14.07
2018-10-11T21:00:20.198Z,14.33
2018-10-11T21:02:48.276Z,14.23
2018-10-11T21:05:16.424Z,13.83
2018-10-11T21:07:44.569Z,14.30
2018-10-11T21:10:12.684Z,13.30
2018-10-11T21:12:40.781Z,14.27
2018-10-11T21:15:08.880Z,14.70
2018-10-11T21:17:36.979Z,13.93
2018-10-11T21:20:05.253Z,13.47
2018-10-11T21:22:33.255Z,13.77
2018-10-11T21:25:01.371Z,13.67
2018-10-11T21:27:29.470Z,12.67
2018-10-11T21:29:57.560Z,12.67
2018-10-11T21:32:25.797Z,12.20
2018-10-11T21:34:53.960Z,12.77
2018-10-11T21:37:22.258Z,16.03
2018-10-11T21:39:50.351Z,16.13
2018-10-11T21:42:18.433Z,15.60
2018-10-11T21:44:46.528Z,14.30
2018-10-11T21:47:14.613Z,16.73
2018-10-11T21:49:42.772Z,16.00
2018-10-11T21:52:11.378Z,14.83
2018-10-11T21:54:39.772Z,14.63
2018-10-11T21:57:07.851Z,14.17
2018-10-11T21:59:35.985Z,13.53
2018-10-11T22:02:04.075Z,12.97
2018-10-11T22:04:32.186Z,14.50
2018-10-11T22:07:00.278Z,13.00
2018-10-11T22:09:28.366Z,14.43
2018-10-11T22:11:56.462Z,13.37
2018-10-11T22:14:24.804Z,14.17
2018-10-11T22:16:52.843Z,14.83
2018-10-11T22:19:20.931Z,16.10
2018-10-11T22:21:49.026Z,15.27
2018-10-11T22:24:17.201Z,14.83
2018-10-11T22:26:45.291Z,13.70
2018-10-11T22:29:13.370Z,14.90
2018-10-11T22:31:41.467Z,13.77
2018-10-11T22:34:09.566Z,14.17
2018-10-11T22:36:37.669Z,14.70
2018-10-11T22:39:08.206Z,13.30
2018-10-11T22:41:36.740Z,14.37
2018-10-11T22:44:04.838Z,15.37
2018-10-11T22:46:32.944Z,14.73
2018-10-11T22:49:01.037Z,15.27
2018-10-11T22:51:29.186Z,14.27
2018-10-11T22:53:57.270Z,14.47
2018-10-11T22:56:25.358Z,13.97
2018-10-11T22:58:53.943Z,14.30
2018-10-11T23:01:22.351Z,13.30
2018-10-11T23:03:50.436Z,14.87
2018-10-11T23:06:18.521Z,16.00
2018-10-11T23:08:46.621Z,14.63
2018-10-11T23:11:14.715Z,15.50
2018-10-11T23:13:42.811Z,14.97
2018-10-11T23:16:11.480Z,13.80
2018-10-11T23:18:40.483Z,13.33
2018-10-11T23:21:08.567Z,13.80
2018-10-11T23:23:36.661Z,13.87
2018-10-11T23:26:04.787Z,13.90
2018-10-11T23:28:32.876Z,13.10
2018-10-11T23:31:00.963Z,13.70
2018-10-11T23:33:29.064Z,13.43
2018-10-11T23:35:57.143Z,13.87
2018-10-11T23:38:25.235Z,14.37
2018-10-11T23:40:53.492Z,13.47
2018-10-11T23:43:21.590Z,13.87
2018-10-11T23:45:49.680Z,14.17
2018-10-11T23:48:17.768Z,14.23
2018-10-11T23:50:45.835Z,13.47
2018-10-11T23:53:13.926Z,13.53
2018-10-11T23:55:41.996Z,14.37
2018-10-11T23:58:10.073Z,15.30
